Terminal Aerodrome Forecast
Issued by NWS

Home | Current Version | Previous Version | Text Only | Print | Product List | Glossary On
Versions: 1 2 3 4 5 6 7 8 9 10 11 12 13 14 15 16 17 18
000
FTUS43 KLSX 190900 AAA
TAFUIN
TAF AMD
KUIN 190933Z 1910/2006 12004KT P6SM SKC
      TEMPO 1911/1912 4SM BR
     FM191500 16008KT P6SM SKC=

USA.gov is the U.S. government's official web portal to all federal, state and local government web resources and services.